createdAt,value
2022-10-06T00:03:48.566Z,0.63
2022-10-06T00:18:48.572Z,1.22
2022-10-06T00:33:48.689Z,1.12
2022-10-06T00:48:48.843Z,0.97
2022-10-06T01:18:49.138Z,0.75
2022-10-06T01:33:49.132Z,1.62
2022-10-06T01:48:49.451Z,1.14
2022-10-06T02:03:48.716Z,1.13
2022-10-06T02:18:48.959Z,0.97
2022-10-06T02:33:48.517Z,0.88
2022-10-06T02:48:48.779Z,0.99
2022-10-06T03:03:49.156Z,1.49
2022-10-06T03:18:48.520Z,1.66
2022-10-06T03:33:48.847Z,2.49
2022-10-06T03:48:49.106Z,1.42
2022-10-06T04:03:48.592Z,4.26
2022-10-06T04:18:49.107Z,2.07
2022-10-06T04:33:49.392Z,3.1
2022-10-06T04:48:48.976Z,2.6
2022-10-06T05:18:49.095Z,6.8
2022-10-06T05:33:48.768Z,12.47
2022-10-06T05:48:48.951Z,5.81
2022-10-06T06:03:48.545Z,4.1
2022-10-06T06:18:48.654Z,14.28
2022-10-06T06:33:48.997Z,15.9
2022-10-06T06:48:48.843Z,3.23
2022-10-06T07:03:57.861Z,2.98
2022-10-06T07:18:49.006Z,24.11
2022-10-06T07:33:49.310Z,4.48
2022-10-06T07:48:49.012Z,4.38
2022-10-06T08:03:49.004Z,3.67
2022-10-06T08:18:48.765Z,2.13
2022-10-06T08:33:48.705Z,11.88
2022-10-06T08:48:49.074Z,3.89
2022-10-06T09:03:48.465Z,2.82
2022-10-06T09:19:07.525Z,5.55
2022-10-06T09:33:49.247Z,2.94
2022-10-06T09:48:49.144Z,2.68
2022-10-06T10:04:02.327Z,3.45
2022-10-06T10:18:49.248Z,1.89
2022-10-06T10:33:53.873Z,2.71
2022-10-06T10:48:49.277Z,2.81
2022-10-06T11:03:49.326Z,2.58
2022-10-06T11:18:49.251Z,2.89
2022-10-06T11:33:48.566Z,2.79
2022-10-06T11:48:49.447Z,3.61
2022-10-06T12:03:48.512Z,3.38
2022-10-06T12:18:48.661Z,4.28
2022-10-06T12:33:48.998Z,5.34
2022-10-06T12:48:48.438Z,4.7
2022-10-06T13:03:48.728Z,5.12
2022-10-06T13:18:49.671Z,5.38
2022-10-06T13:33:48.713Z,5.22
2022-10-06T13:48:49.121Z,5.68
2022-10-06T14:03:48.829Z,6.05
2022-10-06T14:18:48.445Z,6.15
2022-10-06T14:33:48.983Z,6.47
2022-10-06T14:48:48.651Z,6.25
2022-10-06T15:03:49.489Z,9.2
2022-10-06T15:18:49.025Z,9.31
2022-10-06T15:33:52.950Z,8.92
2022-10-06T15:48:49.129Z,14.02
2022-10-06T16:03:48.547Z,8.41
2022-10-06T16:18:48.499Z,8.92
2022-10-06T16:33:49.027Z,7.74
2022-10-06T16:48:49.234Z,7.63
2022-10-06T17:03:48.765Z,6.84
2022-10-06T17:18:49.170Z,8.53
2022-10-06T17:33:48.886Z,13.5
2022-10-06T17:48:48.563Z,7.46
2022-10-06T18:03:49.224Z,8.7
2022-10-06T18:18:49.081Z,10.4
2022-10-06T18:48:48.980Z,27
2022-10-06T19:03:48.668Z,52.59
2022-10-06T19:18:48.708Z,18.56
2022-10-06T19:33:48.824Z,16.9
2022-10-06T19:48:49.330Z,21.24
2022-10-06T20:03:48.661Z,16.15
2022-10-06T20:18:49.012Z,15.22
2022-10-06T20:33:49.117Z,15.73
2022-10-06T20:48:48.799Z,14.21
2022-10-06T21:03:48.533Z,15.95
2022-10-06T21:18:48.684Z,10.52
2022-10-06T21:33:49.328Z,8.82
2022-10-06T21:48:49.154Z,9.1
2022-10-06T22:03:49.119Z,8.98
2022-10-06T22:18:49.207Z,9
2022-10-06T22:33:49.414Z,8.45
2022-10-06T22:48:49.108Z,8.86
2022-10-06T23:03:49.036Z,8.28
2022-10-06T23:18:48.449Z,7.75
2022-10-06T23:33:48.558Z,8.07
2022-10-06T23:48:48.725Z,8.39
